createdAt,value
2023-03-31T00:02:18.262Z,79.57
2023-03-31T00:07:35.402Z,79.96
2023-03-31T00:12:51.501Z,80.37
2023-03-31T00:15:20.530Z,80.54
2023-03-31T00:17:45.457Z,80.69
2023-03-31T00:20:11.807Z,80.85
2023-03-31T00:22:38.124Z,81.00
2023-03-31T00:25:04.686Z,81.17
2023-03-31T00:27:31.009Z,81.35
2023-03-31T00:29:58.450Z,81.50
2023-03-31T00:32:25.040Z,81.58
2023-03-31T00:34:51.353Z,81.71
2023-03-31T00:37:17.753Z,81.78
2023-03-31T00:39:44.063Z,81.91
2023-03-31T00:42:10.449Z,81.99
2023-03-31T00:44:36.734Z,82.06
2023-03-31T00:47:03.130Z,82.12
2023-03-31T00:49:29.505Z,82.14
2023-03-31T00:51:55.926Z,82.19
2023-03-31T00:54:22.273Z,82.20
2023-03-31T00:56:48.765Z,82.23
2023-03-31T00:59:15.165Z,82.22
2023-03-31T01:01:41.562Z,82.24
2023-03-31T01:04:08.031Z,82.20
2023-03-31T01:06:34.373Z,82.20
2023-03-31T01:09:00.737Z,82.18
2023-03-31T01:11:27.098Z,82.15
2023-03-31T01:13:53.553Z,82.12
2023-03-31T01:16:19.998Z,82.10
2023-03-31T01:18:46.472Z,82.10
2023-03-31T01:21:12.705Z,82.09
2023-03-31T01:23:39.084Z,82.11
2023-03-31T01:26:05.775Z,82.16
2023-03-31T01:28:31.997Z,82.17
2023-03-31T01:30:58.321Z,82.19
2023-03-31T01:33:24.671Z,82.21
2023-03-31T01:35:51.067Z,82.22
2023-03-31T01:38:17.425Z,82.21
2023-03-31T01:40:43.764Z,82.25
2023-03-31T01:43:10.110Z,82.28
2023-03-31T01:45:36.445Z,82.28
2023-03-31T01:48:02.862Z,82.34
2023-03-31T01:50:29.228Z,82.35
2023-03-31T01:52:55.532Z,82.43
2023-03-31T01:55:21.908Z,82.47
2023-03-31T01:57:48.249Z,82.53
2023-03-31T02:00:14.621Z,82.58
2023-03-31T02:02:41.159Z,82.61
2023-03-31T02:05:07.388Z,82.64
2023-03-31T02:07:33.779Z,82.71
2023-03-31T02:10:00.143Z,82.81
2023-03-31T02:12:26.454Z,82.91
2023-03-31T02:15:10.113Z,82.97
2023-03-31T02:17:36.668Z,83.03
2023-03-31T02:20:04.573Z,83.07
2023-03-31T02:22:33.717Z,83.12
2023-03-31T02:25:00.038Z,83.19
2023-03-31T02:27:26.389Z,83.24
2023-03-31T02:29:52.791Z,83.27
2023-03-31T02:32:21.339Z,83.31
2023-03-31T02:34:47.882Z,83.36
2023-03-31T02:37:18.435Z,83.40
2023-03-31T02:39:46.545Z,83.44
2023-03-31T02:42:41.925Z,83.49
2023-03-31T02:44:53.077Z,83.56
2023-03-31T02:47:17.608Z,83.57
2023-03-31T02:49:44.092Z,83.64
2023-03-31T02:52:10.514Z,83.71
2023-03-31T02:54:36.852Z,83.77
2023-03-31T02:57:03.270Z,83.82
2023-03-31T02:59:29.542Z,83.89
2023-03-31T03:01:55.929Z,83.97
2023-03-31T03:04:22.297Z,84.08
2023-03-31T03:06:48.698Z,84.17
2023-03-31T03:09:15.029Z,84.27
2023-03-31T03:11:41.377Z,84.33
2023-03-31T03:14:07.745Z,84.40
2023-03-31T03:16:34.117Z,84.47
2023-03-31T03:19:00.529Z,84.55
2023-03-31T03:21:26.867Z,84.59
2023-03-31T03:24:08.840Z,84.63
2023-03-31T03:26:31.058Z,84.65
2023-03-31T03:28:57.455Z,84.67
2023-03-31T03:31:24.022Z,84.73
2023-03-31T03:33:50.184Z,84.76
2023-03-31T03:36:16.630Z,84.84
2023-03-31T03:38:43.061Z,84.89
2023-03-31T03:41:09.449Z,84.98
2023-03-31T03:43:35.824Z,85.03
2023-03-31T03:46:02.264Z,85.07
2023-03-31T03:48:28.567Z,85.10
2023-03-31T03:50:54.926Z,85.12
2023-03-31T03:53:21.347Z,85.15
2023-03-31T03:55:47.684Z,85.18
2023-03-31T03:58:14.025Z,85.22
2023-03-31T04:00:40.484Z,85.24
2023-03-31T04:03:06.879Z,85.29
2023-03-31T04:05:33.225Z,85.37
2023-03-31T04:07:59.546Z,85.35
2023-03-31T04:10:25.937Z,85.36
2023-03-31T04:12:52.353Z,85.38
2023-03-31T04:15:18.872Z,85.45
2023-03-31T04:17:45.238Z,85.45
2023-03-31T04:20:11.657Z,85.48
2023-03-31T04:22:37.953Z,85.51
2023-03-31T04:25:04.369Z,85.54
2023-03-31T04:27:30.875Z,85.58
2023-03-31T04:29:57.176Z,85.63
2023-03-31T04:32:23.536Z,85.67
2023-03-31T04:34:49.966Z,85.71
2023-03-31T04:37:16.357Z,85.74
2023-03-31T04:39:42.769Z,85.75
2023-03-31T04:42:09.413Z,85.74
2023-03-31T04:44:38.728Z,85.77
2023-03-31T04:47:05.175Z,85.81
2023-03-31T04:49:31.528Z,85.84
2023-03-31T04:51:57.914Z,85.86
2023-03-31T04:54:24.255Z,85.86
2023-03-31T04:56:50.678Z,85.88
2023-03-31T04:59:17.047Z,85.89
2023-03-31T05:01:43.514Z,85.89
2023-03-31T05:04:09.785Z,85.84
2023-03-31T05:06:36.142Z,85.79
2023-03-31T05:09:02.506Z,88.26
2023-03-31T05:11:28.910Z,92.37
2023-03-31T05:13:55.250Z,93.46
2023-03-31T05:16:21.633Z,93.11
2023-03-31T05:18:47.983Z,89.11
2023-03-31T05:21:14.399Z,83.31
2023-03-31T05:23:40.814Z,79.10
2023-03-31T05:26:07.289Z,76.16
2023-03-31T05:28:33.521Z,75.31
2023-03-31T05:30:59.870Z,75.18
2023-03-31T05:33:26.303Z,74.59
2023-03-31T05:35:54.371Z,74.82
2023-03-31T05:38:19.073Z,74.84
2023-03-31T05:40:45.468Z,73.99
2023-03-31T05:43:11.854Z,73.07
2023-03-31T05:45:38.189Z,72.89
2023-03-31T05:48:04.648Z,73.32
2023-03-31T05:50:30.937Z,73.01
2023-03-31T05:52:57.328Z,72.68
2023-03-31T05:55:24.028Z,72.45
2023-03-31T05:57:50.378Z,72.70
2023-03-31T06:00:16.751Z,72.44
2023-03-31T06:02:43.152Z,72.55
2023-03-31T06:05:09.470Z,72.56
2023-03-31T06:07:35.875Z,71.87
2023-03-31T06:10:02.309Z,71.98
2023-03-31T06:12:28.620Z,71.95
2023-03-31T06:14:55.000Z,71.47
2023-03-31T06:17:21.368Z,71.07
2023-03-31T06:19:47.809Z,71.31
2023-03-31T06:22:14.147Z,71.83
2023-03-31T06:24:40.522Z,71.42
2023-03-31T06:27:07.043Z,70.88
2023-03-31T06:29:33.485Z,70.30
2023-03-31T06:31:59.914Z,70.21
2023-03-31T06:34:28.625Z,70.24
2023-03-31T06:36:54.956Z,68.89
2023-03-31T06:39:21.647Z,68.56
2023-03-31T06:41:47.723Z,68.72
2023-03-31T06:44:14.052Z,69.14
2023-03-31T06:46:40.856Z,68.08
2023-03-31T06:49:07.143Z,66.52
2023-03-31T06:51:33.490Z,65.35
2023-03-31T06:53:59.860Z,64.50
2023-03-31T06:56:26.193Z,64.08
2023-03-31T06:58:52.618Z,63.87
2023-03-31T07:01:19.060Z,63.68
2023-03-31T07:03:45.458Z,63.69
2023-03-31T07:06:11.792Z,63.62
2023-03-31T07:08:38.137Z,63.53
2023-03-31T07:11:05.064Z,62.89
2023-03-31T07:13:30.883Z,62.80
2023-03-31T07:15:57.237Z,62.58
2023-03-31T07:18:23.542Z,61.74
2023-03-31T07:20:49.897Z,61.01
2023-03-31T07:23:16.316Z,60.59
2023-03-31T07:25:42.693Z,63.15
2023-03-31T07:28:09.049Z,61.74
2023-03-31T07:30:35.388Z,60.50
2023-03-31T07:33:01.799Z,59.21
2023-03-31T07:35:28.085Z,57.48
2023-03-31T07:37:54.487Z,55.61
2023-03-31T07:40:20.846Z,54.83
2023-03-31T07:42:49.083Z,54.46
2023-03-31T07:45:13.504Z,53.44
2023-03-31T07:47:40.023Z,54.00
2023-03-31T07:50:06.289Z,52.59
2023-03-31T07:52:32.969Z,52.16
2023-03-31T07:54:59.382Z,51.78
2023-03-31T07:57:25.832Z,50.58
2023-03-31T07:59:52.129Z,49.68
2023-03-31T08:02:18.572Z,48.91
2023-03-31T08:04:44.885Z,48.65
2023-03-31T08:07:11.220Z,48.64
2023-03-31T08:09:37.590Z,48.84
2023-03-31T08:12:03.972Z,48.96
2023-03-31T08:14:40.462Z,48.47
2023-03-31T08:16:56.688Z,48.66
2023-03-31T08:19:23.062Z,48.80
2023-03-31T08:21:49.482Z,48.12
2023-03-31T08:24:15.880Z,48.86
2023-03-31T08:26:42.210Z,49.33
2023-03-31T08:29:09.544Z,48.90
2023-03-31T08:31:35.901Z,48.51
2023-03-31T08:34:02.301Z,47.76
2023-03-31T08:36:28.717Z,47.09
2023-03-31T08:38:55.120Z,46.77
2023-03-31T08:41:21.467Z,46.47
2023-03-31T08:43:47.958Z,46.28
2023-03-31T08:46:14.348Z,45.91
2023-03-31T08:48:40.671Z,45.71
2023-03-31T08:51:07.611Z,45.50
2023-03-31T08:53:33.702Z,45.54
2023-03-31T08:56:00.134Z,45.40
2023-03-31T08:58:26.434Z,45.61
2023-03-31T09:00:52.811Z,45.65
2023-03-31T09:03:19.335Z,45.59
2023-03-31T09:05:58.921Z,44.97
2023-03-31T09:08:11.952Z,44.90
2023-03-31T09:10:38.359Z,44.92
2023-03-31T09:13:04.702Z,45.19
2023-03-31T09:15:31.119Z,45.35
2023-03-31T09:17:57.621Z,45.75
2023-03-31T09:20:23.892Z,45.86
2023-03-31T09:22:50.253Z,45.57
2023-03-31T09:25:16.613Z,45.04
2023-03-31T09:27:42.978Z,44.71
2023-03-31T09:30:09.320Z,44.66
2023-03-31T09:32:35.774Z,43.80
2023-03-31T09:35:02.112Z,43.75
2023-03-31T09:37:28.448Z,43.33
2023-03-31T09:39:54.840Z,42.93
2023-03-31T09:42:21.161Z,42.13
2023-03-31T09:44:47.539Z,41.28
2023-03-31T09:47:13.970Z,41.56
2023-03-31T09:49:40.282Z,41.26
2023-03-31T09:52:06.654Z,40.77
2023-03-31T09:54:33.026Z,39.88
2023-03-31T09:56:59.375Z,39.67
2023-03-31T09:59:25.705Z,39.62
2023-03-31T10:01:52.113Z,39.70
2023-03-31T10:04:18.771Z,38.96
2023-03-31T10:06:45.016Z,38.20
2023-03-31T10:09:11.403Z,37.90
2023-03-31T10:11:37.737Z,37.84
2023-03-31T10:14:04.178Z,37.11
2023-03-31T10:16:30.576Z,37.14
2023-03-31T10:18:56.958Z,37.15
2023-03-31T10:21:23.317Z,36.98
2023-03-31T10:23:49.651Z,36.90
2023-03-31T10:28:42.136Z,37.21
2023-03-31T10:31:08.887Z,37.17
2023-03-31T10:33:35.103Z,37.06
2023-03-31T10:36:01.461Z,36.89
2023-03-31T10:38:27.844Z,36.87
2023-03-31T10:40:54.223Z,36.77
2023-03-31T10:43:20.607Z,36.36
2023-03-31T10:45:47.220Z,36.09
2023-03-31T10:48:13.606Z,36.16
2023-03-31T10:50:40.020Z,36.46
2023-03-31T10:53:06.440Z,36.52
2023-03-31T10:55:32.717Z,36.60
2023-03-31T10:57:59.078Z,36.71
2023-03-31T11:00:25.403Z,36.67
2023-03-31T11:02:52.198Z,36.76
2023-03-31T11:05:18.487Z,37.01
2023-03-31T11:07:44.863Z,37.06
2023-03-31T11:10:11.840Z,37.11
2023-03-31T11:12:38.225Z,37.33
2023-03-31T11:15:04.552Z,37.20
2023-03-31T11:17:31.037Z,37.33
2023-03-31T11:19:57.339Z,37.44
2023-03-31T11:22:24.101Z,37.27
2023-03-31T11:24:50.417Z,37.48
2023-03-31T11:27:16.809Z,37.67
2023-03-31T11:29:43.163Z,37.92
2023-03-31T11:32:09.621Z,37.61
2023-03-31T11:34:35.852Z,37.99
2023-03-31T11:37:02.237Z,38.01
2023-03-31T11:39:28.611Z,37.96
2023-03-31T11:41:55.012Z,37.88
2023-03-31T11:44:21.335Z,38.09
2023-03-31T11:46:47.893Z,38.17
2023-03-31T11:49:14.233Z,37.91
2023-03-31T11:51:40.630Z,37.82
2023-03-31T11:54:07.062Z,37.95
2023-03-31T11:56:33.498Z,38.09
2023-03-31T11:58:59.849Z,37.73
2023-03-31T12:01:26.199Z,37.69
2023-03-31T12:03:53.756Z,37.61
2023-03-31T12:06:20.178Z,37.63
2023-03-31T12:08:46.450Z,37.81
2023-03-31T12:11:12.927Z,37.87
2023-03-31T12:13:39.320Z,37.57
2023-03-31T12:16:05.953Z,37.36
2023-03-31T12:18:32.102Z,37.05
2023-03-31T12:20:58.518Z,36.90
2023-03-31T12:23:24.931Z,36.61
2023-03-31T12:25:51.414Z,36.68
2023-03-31T12:28:17.748Z,36.48
2023-03-31T12:30:45.138Z,36.58
2023-03-31T12:33:11.543Z,36.68
2023-03-31T12:35:37.901Z,36.60
2023-03-31T12:38:06.420Z,36.73
2023-03-31T12:40:32.804Z,36.63
2023-03-31T12:42:59.149Z,36.54
2023-03-31T12:45:25.501Z,36.42
2023-03-31T12:47:51.831Z,36.45
2023-03-31T12:50:18.180Z,36.32
2023-03-31T12:52:44.540Z,36.10
2023-03-31T12:55:10.885Z,36.12
2023-03-31T12:57:37.207Z,35.74
2023-03-31T13:00:03.590Z,35.59
2023-03-31T13:02:30.044Z,35.15
2023-03-31T13:04:56.341Z,35.36
2023-03-31T13:07:28.297Z,35.47
2023-03-31T13:09:49.193Z,35.50
2023-03-31T13:12:15.752Z,35.67
2023-03-31T13:14:42.118Z,35.32
2023-03-31T13:17:08.483Z,35.58
2023-03-31T13:19:34.859Z,36.59
2023-03-31T13:22:01.282Z,35.90
2023-03-31T13:24:27.653Z,35.89
2023-03-31T13:26:54.893Z,35.92
2023-03-31T13:29:20.374Z,35.62
2023-03-31T13:31:46.731Z,35.81
2023-03-31T13:34:13.415Z,35.71
2023-03-31T13:36:39.739Z,36.00
2023-03-31T13:39:06.162Z,35.85
2023-03-31T13:41:32.456Z,36.27
2023-03-31T13:43:58.912Z,36.37
2023-03-31T13:46:25.350Z,36.47
2023-03-31T13:48:51.684Z,36.77
2023-03-31T13:51:18.064Z,38.41
2023-03-31T13:53:44.478Z,38.98
2023-03-31T13:56:11.037Z,38.39
2023-03-31T13:58:37.279Z,38.32
2023-03-31T14:01:05.555Z,37.78
2023-03-31T14:03:30.108Z,37.53
2023-03-31T14:05:56.438Z,37.85
2023-03-31T14:08:22.801Z,37.77
2023-03-31T14:10:49.160Z,37.71
2023-03-31T14:13:18.244Z,37.93
2023-03-31T14:15:42.197Z,37.74
2023-03-31T14:18:08.562Z,38.03
2023-03-31T14:20:34.886Z,37.84
2023-03-31T14:23:01.259Z,38.03
2023-03-31T14:25:27.707Z,38.30
2023-03-31T14:27:54.037Z,38.46
2023-03-31T14:30:20.420Z,38.57
2023-03-31T14:32:46.891Z,38.35
2023-03-31T14:35:13.248Z,38.62
2023-03-31T14:37:39.559Z,38.61
2023-03-31T14:40:05.988Z,39.15
2023-03-31T14:42:32.325Z,38.85
2023-03-31T14:44:58.770Z,38.91
2023-03-31T14:47:25.426Z,39.22
2023-03-31T14:49:51.765Z,39.36
2023-03-31T14:52:20.573Z,39.39
2023-03-31T14:54:46.984Z,39.51
2023-03-31T14:57:13.341Z,39.57
2023-03-31T14:59:39.777Z,39.75
2023-03-31T15:02:07.413Z,39.90
2023-03-31T15:04:41.956Z,40.03
2023-03-31T15:07:00.131Z,39.86
2023-03-31T15:09:26.536Z,40.00
2023-03-31T15:11:52.983Z,39.87
2023-03-31T15:14:19.478Z,40.16
2023-03-31T15:16:45.741Z,40.26
2023-03-31T15:19:12.090Z,40.38
2023-03-31T15:21:38.491Z,40.44
2023-03-31T15:24:04.844Z,40.49
2023-03-31T15:26:40.327Z,40.90
2023-03-31T15:28:57.492Z,40.75
2023-03-31T15:31:24.030Z,40.76
2023-03-31T15:33:50.408Z,40.58
2023-03-31T15:36:16.820Z,40.88
2023-03-31T15:38:43.145Z,41.11
2023-03-31T15:41:10.643Z,41.26
2023-03-31T15:43:36.999Z,41.30
2023-03-31T15:46:03.457Z,41.34
2023-03-31T15:48:30.159Z,41.76
2023-03-31T15:50:56.515Z,41.49
2023-03-31T15:53:23.308Z,41.64
2023-03-31T15:55:49.321Z,41.89
2023-03-31T15:58:15.678Z,41.88
2023-03-31T16:00:42.450Z,42.04
2023-03-31T16:03:09.994Z,41.83
2023-03-31T16:05:43.713Z,41.89
2023-03-31T16:08:03.507Z,41.47
2023-03-31T16:10:30.073Z,41.85
2023-03-31T16:12:56.390Z,42.03
2023-03-31T16:15:25.030Z,42.38
2023-03-31T16:17:49.155Z,42.06
2023-03-31T16:20:15.501Z,41.60
2023-03-31T16:22:41.923Z,41.78
2023-03-31T16:25:08.294Z,41.88
2023-03-31T16:27:34.673Z,41.67
2023-03-31T16:30:01.016Z,41.94
2023-03-31T16:32:27.418Z,42.27
2023-03-31T16:34:53.766Z,42.55
2023-03-31T16:37:20.150Z,42.58
2023-03-31T16:39:46.620Z,42.19
2023-03-31T16:42:13.042Z,42.55
2023-03-31T16:44:40.886Z,42.63
2023-03-31T16:47:05.974Z,42.65
2023-03-31T16:49:32.310Z,43.10
2023-03-31T16:51:58.665Z,43.81
2023-03-31T16:54:25.039Z,44.46
2023-03-31T16:56:51.451Z,44.35
2023-03-31T16:59:17.825Z,44.17
2023-03-31T17:01:44.142Z,44.73
2023-03-31T17:04:10.577Z,44.67
2023-03-31T17:06:36.960Z,44.85
2023-03-31T17:09:03.319Z,44.50
2023-03-31T17:11:30.509Z,44.24
2023-03-31T17:13:56.072Z,44.72
2023-03-31T17:16:32.912Z,44.97
2023-03-31T17:18:49.881Z,45.14
2023-03-31T17:21:16.255Z,45.85
2023-03-31T17:23:42.726Z,45.72
2023-03-31T17:26:09.001Z,49.93
2023-03-31T17:28:35.357Z,49.10
2023-03-31T17:31:01.839Z,49.11
2023-03-31T17:33:28.144Z,49.48
2023-03-31T17:35:54.524Z,49.85
2023-03-31T17:38:20.870Z,50.13
2023-03-31T17:40:47.263Z,50.41
2023-03-31T17:43:13.582Z,50.69
2023-03-31T17:45:40.178Z,50.97
2023-03-31T17:48:06.560Z,51.29
2023-03-31T17:50:32.876Z,51.59
2023-03-31T17:52:59.246Z,51.90
2023-03-31T17:55:25.637Z,52.15
2023-03-31T17:57:51.992Z,52.39
2023-03-31T18:00:18.352Z,52.60
2023-03-31T18:02:44.798Z,52.86
2023-03-31T18:05:11.203Z,53.13
2023-03-31T18:07:37.468Z,53.39
2023-03-31T18:10:04.034Z,53.65
2023-03-31T18:12:30.429Z,53.89
2023-03-31T18:14:56.717Z,54.14
2023-03-31T18:17:23.106Z,54.38
2023-03-31T18:19:49.448Z,54.61
2023-03-31T18:22:15.832Z,54.85
2023-03-31T18:24:42.185Z,55.07
2023-03-31T18:27:08.606Z,55.31
2023-03-31T18:29:35.012Z,55.49
2023-03-31T18:32:01.495Z,55.74
2023-03-31T18:34:27.856Z,55.99
2023-03-31T18:36:54.254Z,56.19
2023-03-31T18:39:20.619Z,56.40
2023-03-31T18:41:47.265Z,56.66
2023-03-31T18:44:13.689Z,56.88
2023-03-31T18:46:40.080Z,57.14
2023-03-31T18:49:06.473Z,57.58
2023-03-31T18:51:32.860Z,58.61
2023-03-31T18:53:59.368Z,59.08
2023-03-31T18:56:25.704Z,59.38
2023-03-31T18:58:52.057Z,59.60
2023-03-31T19:01:18.430Z,62.17
2023-03-31T19:03:44.809Z,67.25
2023-03-31T19:06:11.169Z,68.08
2023-03-31T19:08:37.590Z,67.93
2023-03-31T19:11:04.161Z,68.01
2023-03-31T19:13:30.498Z,68.01
2023-03-31T19:15:56.880Z,67.92
2023-03-31T19:18:23.253Z,67.88
2023-03-31T19:20:49.571Z,67.93
2023-03-31T19:23:16.118Z,68.03
2023-03-31T19:25:42.647Z,68.18
2023-03-31T19:28:09.000Z,68.39
2023-03-31T19:30:35.312Z,68.55
2023-03-31T19:33:01.827Z,68.81
2023-03-31T19:35:28.330Z,69.02
2023-03-31T19:37:54.513Z,69.30
2023-03-31T19:40:20.888Z,69.60
2023-03-31T19:42:47.310Z,69.78
2023-03-31T19:45:14.859Z,70.07
2023-03-31T19:47:41.300Z,70.34
2023-03-31T19:50:07.651Z,70.64
2023-03-31T19:52:34.158Z,70.87
2023-03-31T19:55:00.466Z,71.14
2023-03-31T19:57:26.928Z,71.48
2023-03-31T19:59:54.767Z,71.73
2023-03-31T20:02:21.438Z,71.98
2023-03-31T20:04:47.568Z,72.31
2023-03-31T20:07:14.010Z,72.64
2023-03-31T20:09:40.327Z,73.01
2023-03-31T20:12:06.723Z,73.33
2023-03-31T20:14:33.099Z,73.60
2023-03-31T20:16:59.438Z,73.90
2023-03-31T20:19:25.798Z,74.18
2023-03-31T20:21:52.139Z,74.47
2023-03-31T20:24:18.526Z,74.77
2023-03-31T20:26:44.929Z,75.07
2023-03-31T20:29:11.267Z,75.38
2023-03-31T20:31:37.924Z,75.69
2023-03-31T20:34:04.281Z,75.90
2023-03-31T20:36:30.620Z,76.07
2023-03-31T20:38:56.941Z,76.50
2023-03-31T20:41:23.325Z,76.64
2023-03-31T20:43:49.639Z,76.76
2023-03-31T20:46:16.042Z,76.92
2023-03-31T20:48:42.361Z,77.25
2023-03-31T20:51:08.751Z,77.45
2023-03-31T20:53:35.057Z,77.75
2023-03-31T20:56:01.498Z,78.05
2023-03-31T20:58:27.800Z,78.34
2023-03-31T21:00:54.234Z,78.63
2023-03-31T21:03:20.533Z,78.88
2023-03-31T21:05:46.865Z,79.10
2023-03-31T21:08:13.237Z,79.28
2023-03-31T21:10:39.589Z,79.49
2023-03-31T21:13:06.004Z,79.60
2023-03-31T21:15:32.630Z,79.86
2023-03-31T21:17:58.813Z,80.04
2023-03-31T21:20:25.402Z,80.20
2023-03-31T21:22:51.774Z,80.34
2023-03-31T21:25:18.176Z,80.44
2023-03-31T21:27:44.542Z,80.65
2023-03-31T21:30:11.633Z,80.80
2023-03-31T21:32:38.006Z,80.94
2023-03-31T21:35:04.338Z,81.08
2023-03-31T21:37:30.661Z,81.21
2023-03-31T21:39:57.057Z,81.38
2023-03-31T21:42:23.462Z,81.58
2023-03-31T21:44:49.847Z,81.75
2023-03-31T21:47:16.172Z,81.90
2023-03-31T21:49:42.556Z,82.03
2023-03-31T21:52:08.960Z,82.18
2023-03-31T21:54:35.345Z,82.32
2023-03-31T21:57:01.839Z,82.50
2023-03-31T21:59:28.223Z,82.61
2023-03-31T22:01:54.638Z,82.69
2023-03-31T22:04:20.964Z,82.76
2023-03-31T22:06:47.232Z,82.86
2023-03-31T22:09:13.673Z,82.92
2023-03-31T22:11:39.974Z,82.98
2023-03-31T22:14:06.357Z,83.01
2023-03-31T22:16:32.750Z,83.04
2023-03-31T22:18:59.056Z,83.06
2023-03-31T22:21:25.485Z,83.12
2023-03-31T22:23:51.861Z,83.25
2023-03-31T22:26:18.244Z,83.36
2023-03-31T22:28:44.604Z,83.53
2023-03-31T22:31:11.078Z,83.74
2023-03-31T22:33:37.386Z,83.91
2023-03-31T22:36:03.718Z,84.04
2023-03-31T22:38:30.113Z,84.19
2023-03-31T22:40:56.475Z,84.32
2023-03-31T22:43:22.850Z,84.45
2023-03-31T22:45:49.212Z,84.61
2023-03-31T22:48:15.606Z,84.72
2023-03-31T22:50:41.990Z,84.78
2023-03-31T22:53:08.377Z,84.89
2023-03-31T22:55:34.910Z,84.92
2023-03-31T22:58:01.068Z,84.97
2023-03-31T23:00:27.650Z,85.01
2023-03-31T23:02:54.025Z,85.09
2023-03-31T23:05:20.316Z,85.14
2023-03-31T23:07:46.713Z,85.24
2023-03-31T23:10:13.013Z,85.33
2023-03-31T23:12:39.381Z,85.41
2023-03-31T23:15:05.770Z,85.46
2023-03-31T23:17:32.148Z,85.50
2023-03-31T23:19:58.481Z,85.51
2023-03-31T23:22:24.885Z,85.53
2023-03-31T23:24:51.242Z,85.57
2023-03-31T23:27:17.893Z,85.64
2023-03-31T23:29:44.220Z,85.71
2023-03-31T23:32:10.651Z,85.83
2023-03-31T23:34:36.991Z,85.87
2023-03-31T23:37:03.374Z,85.98
2023-03-31T23:39:29.690Z,86.04
2023-03-31T23:41:56.070Z,86.08
2023-03-31T23:44:22.463Z,86.12
2023-03-31T23:46:48.831Z,86.19
2023-03-31T23:49:15.186Z,86.30
2023-03-31T23:51:41.576Z,86.37
2023-03-31T23:54:07.882Z,86.42
2023-03-31T23:56:34.572Z,86.49
2023-03-31T23:59:00.872Z,86.55
